Time;durP1;ratioP1;P1;durP2;ratioP2;P2;SDS_P1;SDS_P2;PMS_P1;PMS_P2;Temp;Humidity;BMP_temperature;BMP_pressure;BME280_temperature;BME280_humidity;BME280_pressure;Samples;Min_cycle;Max_cycle;Signal;HPM_P1;HPM_P2
2024/01/13 00:00:41;;;;;;;1.65;1.55;;;5.90;99.90;;;;;;4989163;28;20095;-86
2024/01/13 00:03:07;;;;;;;1.63;1.52;;;6.10;99.90;;;;;;4970627;28;20525;-87
2024/01/13 00:05:33;;;;;;;1.60;1.50;;;5.80;99.90;;;;;;4986348;28;20125;-86
2024/01/13 00:07:58;;;;;;;1.67;1.58;;;6.60;99.90;;;;;;4967404;28;20068;-86
2024/01/13 00:10:24;;;;;;;1.67;1.58;;;5.70;99.90;;;;;;4983041;28;20605;-86
2024/01/13 00:12:50;;;;;;;1.70;1.60;;;6.30;99.90;;;;;;4988647;28;20054;-86
2024/01/13 00:15:15;;;;;;;1.73;1.63;;;6.30;99.90;;;;;;4988205;28;20491;-86
2024/01/13 00:17:41;;;;;;;1.70;1.60;;;6.10;99.90;;;;;;4986317;28;20045;-86
2024/01/13 00:20:08;;;;;;;1.70;1.60;;;6.60;99.90;;;;;;4986303;28;20045;-87
2024/01/13 00:22:33;;;;;;;1.70;1.60;;;5.70;99.90;;;;;;4986768;28;20042;-86
2024/01/13 00:24:59;;;;;;;1.67;1.58;;;6.60;99.90;;;;;;4990944;28;20048;-86
2024/01/13 00:27:25;;;;;;;1.70;1.60;;;6.60;99.90;;;;;;4988932;28;20191;-86
2024/01/13 00:29:51;;;;;;;1.70;1.60;;;5.70;99.90;;;;;;4989388;28;20041;-85
2024/01/13 00:32:24;;;;;;;1.70;1.60;;;6.70;99.90;;;;;;4972915;28;20053;-85
2024/01/13 00:35:02;;;;;;;1.65;1.55;;;6.00;99.90;;;;;;4989667;28;20049;-86
2024/01/13 00:37:54;;;;;;;1.60;1.50;;;5.90;99.90;;;;;;4987665;28;20441;-87
2024/01/13 00:40:23;;;;;;;1.67;1.58;;;5.60;99.90;;;;;;4990277;28;20053;-85
2024/01/13 00:43:00;;;;;;;1.60;1.50;;;6.60;99.90;;;;;;4989304;28;20161;-86
2024/01/13 00:45:29;;;;;;;1.60;1.50;;;5.80;99.90;;;;;;4988173;28;20038;-86
2024/01/13 00:47:55;;;;;;;1.60;1.50;;;6.00;99.90;;;;;;4985347;28;20076;-86
2024/01/13 00:50:20;;;;;;;1.60;1.50;;;6.00;99.90;;;;;;4986774;28;20046;-86
2024/01/13 00:52:46;;;;;;;1.65;1.55;;;6.00;99.90;;;;;;4989594;28;20129;-85
2024/01/13 00:55:12;;;;;;;1.60;1.50;;;5.80;99.90;;;;;;4970816;28;20041;-87
2024/01/13 00:57:37;;;;;;;1.67;1.58;;;6.30;99.90;;;;;;4984427;28;20488;-85
2024/01/13 01:00:03;;;;;;;1.63;1.52;;;6.10;99.90;;;;;;4986829;28;20090;-85
2024/01/13 01:02:29;;;;;;;1.70;1.60;;;5.70;99.90;;;;;;4985481;28;20857;-85
2024/01/13 01:04:54;;;;;;;1.65;1.55;;;6.30;99.90;;;;;;4967731;28;20056;-86
2024/01/13 01:07:20;;;;;;;1.70;1.60;;;5.80;99.90;;;;;;4987184;28;20050;-86
2024/01/13 01:09:46;;;;;;;1.60;1.50;;;5.80;99.90;;;;;;4984284;28;20042;-86
2024/01/13 01:12:11;;;;;;;1.60;1.50;;;5.50;99.90;;;;;;4987391;28;20037;-87
2024/01/13 01:14:37;;;;;;;1.50;1.40;;;6.30;99.90;;;;;;4986577;28;20046;-86
2024/01/13 01:17:06;;;;;;;1.52;1.42;;;5.40;99.90;;;;;;4985267;28;20127;-86
2024/01/13 01:19:32;;;;;;;1.50;1.40;;;5.40;99.90;;;;;;4984588;28;20057;-86
2024/01/13 01:21:57;;;;;;;1.50;1.40;;;5.60;99.90;;;;;;4982619;28;20479;-86
2024/01/13 01:24:23;;;;;;;1.50;1.40;;;5.40;99.90;;;;;;4966329;28;20062;-86
2024/01/13 01:26:49;;;;;;;1.52;1.42;;;5.40;99.90;;;;;;5000057;28;20196;-86
2024/01/13 01:29:14;;;;;;;1.45;1.38;;;6.20;99.90;;;;;;4986428;28;20046;-86
2024/01/13 01:31:40;;;;;;;1.40;1.40;;;6.50;99.90;;;;;;4988530;28;20080;-86
2024/01/13 01:34:05;;;;;;;1.50;1.40;;;6.30;99.90;;;;;;4974113;28;20420;-86
2024/01/13 01:36:31;;;;;;;1.50;1.40;;;5.80;99.90;;;;;;4986968;28;20049;-86
2024/01/13 01:38:57;;;;;;;1.38;1.38;;;5.60;99.90;;;;;;4984770;28;20042;-86
2024/01/13 01:41:24;;;;;;;1.48;1.38;;;5.70;99.90;;;;;;4987947;28;20092;-86
2024/01/13 01:43:50;;;;;;;1.30;1.30;;;5.90;99.90;;;;;;4985298;28;20534;-86
2024/01/13 01:46:19;;;;;;;1.50;1.40;;;5.60;99.90;;;;;;4982245;28;20056;-86
2024/01/13 01:48:45;;;;;;;1.50;1.40;;;5.50;99.90;;;;;;4986943;28;20045;-85
2024/01/13 01:51:12;;;;;;;1.30;1.30;;;6.40;99.90;;;;;;4970969;28;20045;-86
2024/01/13 01:53:39;;;;;;;1.50;1.40;;;5.90;99.90;;;;;;4988995;28;20513;-87
2024/01/13 01:56:11;;;;;;;1.40;1.40;;;5.70;99.90;;;;;;4986106;28;20125;-85
2024/01/13 01:58:39;;;;;;;1.40;1.40;;;6.50;99.90;;;;;;4985342;28;20119;-86
2024/01/13 02:01:07;;;;;;;1.45;1.40;;;5.50;99.90;;;;;;4984901;28;20092;-86
2024/01/13 02:03:34;;;;;;;1.27;1.27;;;5.80;99.90;;;;;;4986222;28;20041;-85
2024/01/13 02:06:02;;;;;;;1.30;1.30;;;6.10;99.90;;;;;;4984881;28;20052;-86
2024/01/13 02:08:28;;;;;;;1.30;1.30;;;6.10;99.90;;;;;;4986149;28;20415;-86
2024/01/13 02:10:54;;;;;;;1.50;1.40;;;6.40;99.90;;;;;;4984878;28;20080;-86
2024/01/13 02:13:20;;;;;;;1.30;1.30;;;5.60;99.90;;;;;;4967808;28;20053;-86
2024/01/13 02:15:45;;;;;;;1.30;1.30;;;5.70;99.90;;;;;;4986671;28;20046;-85
2024/01/13 02:18:11;;;;;;;1.45;1.40;;;5.80;99.90;;;;;;4988030;28;20042;-86
2024/01/13 02:20:37;;;;;;;1.48;1.40;;;5.90;99.90;;;;;;4982574;28;20038;-86
2024/01/13 02:23:02;;;;;;;1.50;1.40;;;5.70;99.90;;;;;;4988299;28;20080;-86
2024/01/13 02:25:28;;;;;;;1.40;1.40;;;5.80;99.90;;;;;;4986280;28;20209;-86
2024/01/13 02:27:54;;;;;;;1.35;1.35;;;5.90;99.90;;;;;;4965503;28;20141;-86
2024/01/13 02:30:19;;;;;;;1.50;1.40;;;5.60;99.90;;;;;;4983838;28;20412;-86
2024/01/13 02:32:45;;;;;;;1.30;1.30;;;6.60;99.90;;;;;;4964297;28;20555;-84
2024/01/13 02:35:10;;;;;;;1.50;1.40;;;5.50;99.90;;;;;;4983562;28;20045;-86
2024/01/13 02:37:36;;;;;;;1.40;1.40;;;5.90;99.90;;;;;;4985241;28;20049;-86
2024/01/13 02:40:02;;;;;;;1.40;1.40;;;5.60;99.90;;;;;;4982030;28;20042;-85
2024/01/13 02:42:28;;;;;;;1.50;1.40;;;5.60;99.90;;;;;;4982454;28;20445;-86
2024/01/13 02:44:54;;;;;;;1.30;1.30;;;5.70;99.90;;;;;;4970454;28;20148;-85
2024/01/13 02:47:27;;;;;;;1.30;1.30;;;5.80;99.90;;;;;;4982642;28;20054;-86
2024/01/13 02:49:53;;;;;;;1.50;1.40;;;6.50;99.90;;;;;;4986348;28;20046;-85
2024/01/13 02:52:19;;;;;;;1.60;1.50;;;5.80;99.90;;;;;;4983264;28;20045;-85
2024/01/13 02:54:44;;;;;;;1.30;1.30;;;5.70;99.90;;;;;;4984683;28;20132;-86
2024/01/13 02:57:10;;;;;;;1.30;1.30;;;6.10;99.90;;;;;;4986257;28;20054;-86
2024/01/13 02:59:35;;;;;;;1.48;1.40;;;6.20;99.90;;;;;;4984775;28;20419;-86
2024/01/13 03:02:02;;;;;;;1.30;1.30;;;6.60;99.90;;;;;;4984670;28;20562;-86
2024/01/13 03:04:27;;;;;;;1.48;1.40;;;6.70;99.90;;;;;;5000548;28;20475;-86
2024/01/13 03:06:53;;;;;;;1.30;1.30;;;6.30;99.90;;;;;;4988065;28;20115;-86
2024/01/13 03:09:19;;;;;;;1.30;1.30;;;6.70;99.90;;;;;;4983410;28;20089;-86
2024/01/13 03:11:45;;;;;;;1.30;1.30;;;6.70;99.90;;;;;;5003682;28;20805;-85
2024/01/13 03:14:10;;;;;;;1.30;1.30;;;6.60;99.90;;;;;;4989277;28;20057;-86
2024/01/13 03:16:36;;;;;;;1.30;1.30;;;6.60;99.90;;;;;;4989559;28;20053;-86
2024/01/13 03:19:02;;;;;;;1.20;1.20;;;5.70;99.90;;;;;;4987089;28;20053;-86
2024/01/13 03:21:27;;;;;;;1.20;1.20;;;5.80;99.90;;;;;;4988898;28;20041;-86
2024/01/13 03:23:53;;;;;;;1.20;1.20;;;6.20;99.90;;;;;;5004661;28;20058;-86
2024/01/13 03:26:18;;;;;;;1.27;1.27;;;5.70;99.90;;;;;;4986486;28;20046;-86
2024/01/13 03:28:44;;;;;;;1.20;1.20;;;5.70;99.90;;;;;;4986317;28;20473;-86
2024/01/13 03:31:11;;;;;;;1.10;1.10;;;5.80;99.90;;;;;;4972111;28;20400;-86
2024/01/13 03:33:37;;;;;;;1.20;1.20;;;6.70;99.90;;;;;;4987593;28;20304;-86
2024/01/13 03:36:03;;;;;;;1.20;1.20;;;6.10;99.90;;;;;;4987887;28;20491;-85
2024/01/13 03:38:28;;;;;;;1.30;1.30;;;5.70;99.90;;;;;;4987479;28;20152;-85
2024/01/13 03:40:54;;;;;;;1.20;1.20;;;5.70;99.90;;;;;;4971741;28;20073;-85
2024/01/13 03:43:20;;;;;;;1.20;1.20;;;6.20;99.90;;;;;;4986766;28;20453;-86
2024/01/13 03:45:45;;;;;;;1.20;1.20;;;6.10;99.90;;;;;;4988073;28;20713;-86
2024/01/13 03:48:11;;;;;;;1.20;1.20;;;5.70;99.90;;;;;;4971958;28;20054;-85
2024/01/13 03:50:37;;;;;;;1.30;1.30;;;5.80;99.90;;;;;;4987065;28;20141;-85
2024/01/13 03:53:03;;;;;;;1.30;1.30;;;6.70;99.90;;;;;;4987719;28;20046;-85
2024/01/13 03:55:28;;;;;;;1.20;1.20;;;6.00;99.90;;;;;;4989866;28;20084;-86
2024/01/13 03:57:54;;;;;;;1.20;1.20;;;6.70;99.90;;;;;;4988439;28;20060;-86
2024/01/13 04:00:20;;;;;;;1.30;1.30;;;6.50;99.90;;;;;;4988928;28;20045;-86
2024/01/13 04:02:45;;;;;;;1.30;1.30;;;5.90;99.90;;;;;;4985149;28;20044;-86
2024/01/13 04:05:11;;;;;;;1.30;1.30;;;5.70;99.90;;;;;;4990112;28;20172;-86
2024/01/13 04:07:37;;;;;;;1.30;1.30;;;5.60;99.90;;;;;;4972254;28;20061;-86
2024/01/13 04:10:02;;;;;;;1.27;1.27;;;6.60;99.90;;;;;;4970557;28;20103;-86
2024/01/13 04:12:28;;;;;;;1.30;1.30;;;6.40;99.90;;;;;;4986881;28;20049;-86
2024/01/13 04:14:54;;;;;;;1.20;1.20;;;6.10;99.90;;;;;;4989335;28;20048;-86
2024/01/13 04:17:20;;;;;;;1.20;1.20;;;6.40;99.90;;;;;;4987908;28;20050;-86
2024/01/13 04:19:45;;;;;;;1.20;1.20;;;6.60;99.90;;;;;;4988360;28;20060;-86
2024/01/13 04:22:11;;;;;;;1.30;1.30;;;5.70;99.90;;;;;;4988455;28;20415;-86
2024/01/13 04:24:36;;;;;;;1.30;1.30;;;6.20;99.90;;;;;;4988502;28;20048;-86
2024/01/13 04:27:02;;;;;;;1.20;1.20;;;5.90;99.90;;;;;;4972008;28;20053;-86
2024/01/13 04:29:28;;;;;;;1.20;1.20;;;5.80;99.90;;;;;;4989284;28;20042;-86
2024/01/13 04:31:53;;;;;;;1.20;1.20;;;5.90;99.90;;;;;;4986762;28;20097;-86
2024/01/13 04:34:19;;;;;;;1.20;1.20;;;6.70;99.90;;;;;;4991878;28;20041;-86
2024/01/13 04:36:45;;;;;;;1.20;1.20;;;6.60;99.90;;;;;;4985305;28;20053;-85
2024/01/13 04:39:10;;;;;;;1.20;1.20;;;6.00;99.90;;;;;;4988323;28;20038;-86
2024/01/13 04:41:41;;;;;;;1.20;1.20;;;6.70;99.90;;;;;;4986398;28;20084;-85
2024/01/13 04:44:07;;;;;;;1.20;1.20;;;5.90;99.90;;;;;;4989317;28;20168;-85
2024/01/13 04:46:33;;;;;;;1.30;1.30;;;6.70;99.90;;;;;;4985760;28;20054;-86
2024/01/13 04:48:59;;;;;;;1.20;1.20;;;5.70;99.90;;;;;;4987587;28;20057;-86
2024/01/13 04:51:24;;;;;;;1.20;1.20;;;6.60;99.90;;;;;;4987465;28;20631;-85
2024/01/13 04:53:50;;;;;;;1.20;1.20;;;6.00;99.90;;;;;;5002802;28;20042;-86
2024/01/13 04:56:16;;;;;;;1.20;1.20;;;5.70;99.90;;;;;;5004178;28;20054;-86
2024/01/13 04:58:42;;;;;;;1.20;1.20;;;6.60;99.90;;;;;;4987612;28;20084;-86
2024/01/13 05:01:07;;;;;;;1.20;1.20;;;6.60;99.90;;;;;;5003829;28;20052;-86
2024/01/13 05:03:35;;;;;;;1.20;1.20;;;5.60;99.90;;;;;;5002100;28;20132;-85
2024/01/13 05:06:01;;;;;;;1.13;1.13;;;6.20;99.90;;;;;;4984858;28;20096;-85
2024/01/13 05:08:27;;;;;;;1.20;1.20;;;5.70;99.90;;;;;;4969153;28;20465;-87
2024/01/13 05:10:52;;;;;;;1.10;1.10;;;5.70;99.90;;;;;;4984499;28;20036;-86
2024/01/13 05:13:18;;;;;;;1.10;1.10;;;5.80;99.90;;;;;;4986473;28;20049;-87
2024/01/13 05:15:44;;;;;;;1.10;1.10;;;5.60;99.90;;;;;;4985255;28;20050;-86
2024/01/13 05:18:09;;;;;;;1.10;1.10;;;6.60;99.90;;;;;;4987235;28;20487;-87
2024/01/13 05:20:35;;;;;;;1.10;1.10;;;6.60;99.90;;;;;;4985852;28;20050;-86
2024/01/13 05:23:01;;;;;;;1.10;1.10;;;5.90;99.90;;;;;;4971173;28;20133;-85
2024/01/13 05:25:26;;;;;;;1.10;1.10;;;6.50;99.90;;;;;;5002292;28;20518;-86
2024/01/13 05:27:52;;;;;;;1.20;1.20;;;5.80;99.90;;;;;;4986715;28;20042;-86
2024/01/13 05:30:18;;;;;;;1.10;1.10;;;5.80;99.90;;;;;;4984147;28;20049;-86
2024/01/13 05:32:43;;;;;;;1.10;1.10;;;6.00;99.90;;;;;;4983535;28;20050;-86
2024/01/13 05:35:09;;;;;;;1.10;1.10;;;6.20;99.90;;;;;;4985271;28;20054;-85
2024/01/13 05:37:35;;;;;;;1.05;1.05;;;5.80;99.90;;;;;;4982070;28;20054;-86
2024/01/13 05:40:00;;;;;;;1.10;1.10;;;6.30;99.90;;;;;;4971427;28;20510;-86
2024/01/13 05:42:26;;;;;;;1.20;1.20;;;5.70;99.90;;;;;;4987173;28;20064;-87
2024/01/13 05:44:52;;;;;;;1.20;1.20;;;6.60;99.90;;;;;;5003428;28;20042;-86
2024/01/13 05:47:18;;;;;;;1.10;1.10;;;5.80;99.90;;;;;;4988744;28;20401;-86
2024/01/13 05:49:43;;;;;;;1.10;1.10;;;6.80;99.90;;;;;;4988896;28;20054;-87
2024/01/13 05:52:12;;;;;;;1.10;1.10;;;5.80;99.90;;;;;;4990443;28;20096;-86
2024/01/13 05:54:39;;;;;;;1.10;1.10;;;6.50;99.90;;;;;;4989272;28;20400;-86
2024/01/13 05:57:04;;;;;;;1.00;1.00;;;6.20;99.90;;;;;;4972779;28;20129;-87
2024/01/13 05:59:30;;;;;;;1.10;1.10;;;5.90;99.90;;;;;;5003611;28;20144;-86
2024/01/13 06:01:56;;;;;;;1.10;1.10;;;5.90;99.90;;;;;;4987546;28;20503;-86
2024/01/13 06:04:22;;;;;;;1.10;1.10;;;5.80;99.90;;;;;;4989030;28;20041;-87
2024/01/13 06:06:47;;;;;;;1.10;1.10;;;6.60;99.90;;;;;;4991514;28;20050;-87
2024/01/13 06:09:13;;;;;;;1.10;1.10;;;6.10;99.90;;;;;;4986278;28;20041;-87
2024/01/13 06:11:42;;;;;;;1.05;1.05;;;6.00;99.90;;;;;;4989078;28;20045;-87
2024/01/13 06:14:08;;;;;;;1.10;1.10;;;6.60;99.90;;;;;;4986514;28;20043;-86
2024/01/13 06:16:34;;;;;;;1.00;1.00;;;5.70;99.90;;;;;;4987310;28;20056;-86
2024/01/13 06:19:02;;;;;;;1.00;1.00;;;6.00;99.90;;;;;;4987746;28;20100;-86
2024/01/13 06:21:28;;;;;;;1.10;1.10;;;5.70;99.90;;;;;;4986208;28;20583;-86
2024/01/13 06:23:56;;;;;;;1.10;1.10;;;6.00;99.90;;;;;;4969574;28;20042;-86
2024/01/13 06:26:22;;;;;;;1.00;1.00;;;6.20;99.90;;;;;;4986584;28;20482;-85
2024/01/13 06:28:47;;;;;;;1.00;1.00;;;6.40;99.90;;;;;;4986119;28;20082;-87
2024/01/13 06:31:13;;;;;;;1.00;1.00;;;6.60;99.90;;;;;;4985608;28;20124;-87
2024/01/13 06:33:39;;;;;;;1.10;1.10;;;6.00;99.90;;;;;;4988321;28;20041;-86
2024/01/13 06:36:04;;;;;;;1.00;1.00;;;5.90;99.90;;;;;;4969561;28;20052;-86
2024/01/13 06:38:30;;;;;;;1.10;1.10;;;6.40;99.90;;;;;;4987249;28;20046;-86
2024/01/13 06:40:56;;;;;;;1.00;1.00;;;5.70;99.90;;;;;;4988324;28;20208;-86
2024/01/13 06:43:21;;;;;;;1.00;1.00;;;5.80;99.90;;;;;;4989670;28;20108;-87
2024/01/13 06:45:47;;;;;;;1.00;1.00;;;6.10;99.90;;;;;;4985621;28;20045;-86
2024/01/13 06:48:13;;;;;;;1.00;1.00;;;6.40;99.90;;;;;;5005134;28;20129;-86
2024/01/13 06:50:38;;;;;;;1.00;1.00;;;6.40;99.90;;;;;;4984835;28;20111;-87
2024/01/13 06:53:04;;;;;;;1.00;1.00;;;5.80;99.90;;;;;;4989881;28;20045;-86
2024/01/13 06:55:30;;;;;;;1.00;1.00;;;5.90;99.90;;;;;;4987772;28;20068;-87
2024/01/13 06:57:55;;;;;;;1.00;1.00;;;5.70;99.90;;;;;;4985464;28;20042;-87
2024/01/13 07:00:21;;;;;;;1.10;1.10;;;6.20;99.90;;;;;;4984942;28;20038;-87
2024/01/13 07:02:47;;;;;;;1.00;1.00;;;5.90;99.90;;;;;;4970528;28;20044;-87
2024/01/13 07:05:13;;;;;;;1.00;1.00;;;6.70;99.90;;;;;;4971352;28;20601;-86
2024/01/13 07:07:40;;;;;;;1.00;1.00;;;5.80;99.90;;;;;;4989094;28;20057;-87
2024/01/13 07:10:06;;;;;;;1.00;1.00;;;6.70;99.90;;;;;;4987273;28;20064;-86
2024/01/13 07:12:32;;;;;;;1.10;1.10;;;5.70;99.90;;;;;;4985428;28;20479;-86
2024/01/13 07:14:57;;;;;;;1.00;1.00;;;6.30;99.90;;;;;;4984258;28;20125;-87
2024/01/13 07:17:23;;;;;;;1.00;1.00;;;6.90;99.90;;;;;;4987604;28;20045;-86
2024/01/13 07:19:49;;;;;;;1.00;1.00;;;6.70;99.90;;;;;;4972232;28;20492;-86
2024/01/13 07:22:14;;;;;;;1.00;1.00;;;6.00;99.90;;;;;;4986268;28;20491;-87
2024/01/13 07:24:40;;;;;;;1.00;1.00;;;6.70;99.90;;;;;;4988541;28;21080;-87
2024/01/13 07:27:06;;;;;;;1.00;1.00;;;6.90;99.90;;;;;;4974383;28;20038;-87
2024/01/13 07:29:31;;;;;;;1.00;1.00;;;6.80;99.90;;;;;;4986057;28;20132;-87
2024/01/13 07:31:57;;;;;;;1.00;1.00;;;6.10;99.90;;;;;;4971636;28;20467;-87
2024/01/13 07:34:25;;;;;;;1.00;1.00;;;6.30;99.90;;;;;;4987947;28;20046;-87
2024/01/13 07:36:50;;;;;;;1.00;1.00;;;6.90;99.90;;;;;;4988740;28;20532;-87
2024/01/13 07:39:16;;;;;;;1.00;1.00;;;6.90;99.90;;;;;;4985804;28;20084;-87
2024/01/13 07:41:43;;;;;;;1.00;1.00;;;6.00;99.90;;;;;;4987775;28;20558;-86
2024/01/13 07:44:09;;;;;;;1.00;1.00;;;7.00;99.90;;;;;;4986669;28;20044;-86
2024/01/13 07:46:41;;;;;;;1.00;1.00;;;7.00;99.90;;;;;;4982680;28;20061;-88
2024/01/13 07:49:07;;;;;;;1.00;1.00;;;6.80;99.90;;;;;;4988644;28;20058;-87
2024/01/13 07:51:33;;;;;;;1.00;1.00;;;6.70;99.90;;;;;;4989871;28;20054;-87
2024/01/13 07:53:59;;;;;;;1.00;1.00;;;7.10;99.90;;;;;;4988121;28;20080;-86
2024/01/13 07:56:25;;;;;;;1.08;1.08;;;6.10;99.90;;;;;;4989450;28;20069;-86
2024/01/13 07:58:50;;;;;;;1.10;1.10;;;6.10;99.90;;;;;;4988608;28;20116;-87
2024/01/13 08:01:18;;;;;;;1.00;1.00;;;6.50;99.90;;;;;;4990172;28;20052;-87
2024/01/13 08:03:44;;;;;;;1.05;1.05;;;7.00;99.90;;;;;;4988246;28;20067;-87
2024/01/13 08:06:10;;;;;;;1.05;1.05;;;6.20;99.90;;;;;;4988447;28;20046;-88
2024/01/13 08:08:35;;;;;;;1.10;1.10;;;6.80;99.90;;;;;;4973915;28;20060;-86
2024/01/13 08:11:01;;;;;;;1.10;1.10;;;6.90;99.90;;;;;;4990734;28;20518;-87
2024/01/13 08:13:27;;;;;;;1.10;1.10;;;7.10;99.90;;;;;;4975094;28;20060;-88
2024/01/13 08:15:52;;;;;;;1.08;1.08;;;6.20;99.90;;;;;;4990119;28;20045;-87
2024/01/13 08:18:18;;;;;;;1.10;1.10;;;6.60;99.90;;;;;;4974688;28;20139;-87
2024/01/13 08:20:44;;;;;;;1.08;1.08;;;6.30;99.90;;;;;;4992075;28;20760;-87
2024/01/13 08:23:09;;;;;;;1.08;1.08;;;6.20;99.90;;;;;;4973891;28;20088;-86
2024/01/13 08:25:35;;;;;;;1.10;1.10;;;6.30;99.90;;;;;;4989204;28;20133;-87
2024/01/13 08:28:01;;;;;;;1.08;1.08;;;6.20;99.90;;;;;;4987589;28;20103;-87
2024/01/13 08:30:26;;;;;;;1.10;1.10;;;7.20;99.90;;;;;;4989214;28;20046;-87
2024/01/13 08:32:52;;;;;;;1.10;1.10;;;6.70;99.90;;;;;;5007998;28;20081;-87
2024/01/13 08:35:18;;;;;;;1.08;1.08;;;6.30;99.90;;;;;;4991913;28;20042;-87
2024/01/13 08:37:43;;;;;;;1.10;1.10;;;6.20;99.90;;;;;;4989317;28;20454;-87
2024/01/13 08:40:09;;;;;;;1.05;1.05;;;6.30;99.90;;;;;;4972500;28;20046;-87
2024/01/13 08:42:37;;;;;;;1.10;1.10;;;6.30;99.90;;;;;;4975262;28;20089;-88
2024/01/13 08:45:04;;;;;;;1.10;1.10;;;7.00;99.90;;;;;;4989869;28;20046;-85
2024/01/13 08:47:31;;;;;;;1.13;1.13;;;6.40;99.90;;;;;;4989651;28;20057;-87
2024/01/13 08:49:57;;;;;;;1.10;1.10;;;6.30;99.90;;;;;;4985904;28;20057;-87
2024/01/13 08:52:22;;;;;;;1.05;1.05;;;7.00;99.90;;;;;;4989735;28;20037;-86
2024/01/13 08:54:48;;;;;;;1.02;1.02;;;7.30;99.90;;;;;;4973690;28;20047;-87
2024/01/13 08:57:14;;;;;;;1.10;1.10;;;6.50;99.90;;;;;;4988252;28;20046;-86
2024/01/13 08:59:39;;;;;;;1.10;1.10;;;7.20;99.90;;;;;;4989331;28;20092;-90
2024/01/13 09:02:06;;;;;;;1.10;1.10;;;6.80;99.90;;;;;;4972354;28;20042;-89
2024/01/13 09:04:32;;;;;;;1.08;1.08;;;7.20;99.90;;;;;;4988370;28;20057;-87
2024/01/13 09:06:58;;;;;;;1.08;1.08;;;7.20;99.90;;;;;;4986503;28;20054;-86
2024/01/13 09:09:23;;;;;;;1.05;1.05;;;7.20;99.90;;;;;;4991435;28;20054;-87
2024/01/13 09:11:49;;;;;;;1.10;1.10;;;6.50;99.90;;;;;;4989993;28;20064;-87
2024/01/13 09:14:16;;;;;;;1.02;1.02;;;7.00;99.90;;;;;;4986890;28;20511;-86
2024/01/13 09:16:46;;;;;;;1.10;1.10;;;7.20;99.90;;;;;;4992120;28;20128;-89
2024/01/13 09:19:11;;;;;;;1.13;1.13;;;6.60;99.90;;;;;;4976277;28;20034;-87
2024/01/13 09:21:38;;;;;;;1.10;1.10;;;7.00;99.90;;;;;;4989869;28;20050;-88
2024/01/13 09:24:04;;;;;;;1.13;1.13;;;6.50;99.90;;;;;;4989277;28;20088;-88
2024/01/13 09:26:30;;;;;;;1.10;1.10;;;7.10;99.90;;;;;;4974840;28;20052;-87
2024/01/13 09:28:56;;;;;;;1.15;1.15;;;7.20;99.90;;;;;;4985270;28;20084;-87
2024/01/13 09:31:22;;;;;;;1.05;1.05;;;7.30;99.90;;;;;;5006100;28;20471;-87
2024/01/13 09:33:47;;;;;;;1.15;1.15;;;7.20;99.90;;;;;;4977928;28;20034;-87
2024/01/13 09:36:14;;;;;;;1.05;1.05;;;7.10;99.90;;;;;;4970433;28;20084;-87
2024/01/13 09:38:39;;;;;;;1.15;1.15;;;7.20;99.90;;;;;;4988703;28;20041;-88
2024/01/13 09:41:06;;;;;;;1.10;1.10;;;6.90;99.90;;;;;;4991610;28;20523;-88
2024/01/13 09:44:01;;;;;;;1.20;1.20;;;6.70;99.90;;;;;;4974238;28;20089;-88
2024/01/13 09:46:27;;;;;;;1.13;1.13;;;7.00;99.90;;;;;;5003598;28;20076;-88
2024/01/13 09:48:54;;;;;;;1.10;1.10;;;6.70;99.90;;;;;;4972574;28;20111;-89
2024/01/13 09:51:22;;;;;;;1.10;1.10;;;7.30;99.90;;;;;;4974038;28;20104;-88
2024/01/13 09:53:57;;;;;;;1.15;1.15;;;7.10;99.90;;;;;;4985334;28;20052;-88
2024/01/13 09:56:29;;;;;;;1.17;1.17;;;6.90;99.90;;;;;;4975773;28;20472;-88
2024/01/13 09:58:55;;;;;;;1.08;1.08;;;6.80;99.90;;;;;;4970871;28;20178;-90
2024/01/13 10:01:21;;;;;;;1.08;1.08;;;6.60;99.90;;;;;;4988923;28;20656;-88
2024/01/13 10:03:47;;;;;;;1.02;1.02;;;7.10;99.90;;;;;;4972759;28;20038;-88
2024/01/13 10:06:14;;;;;;;1.10;1.10;;;6.70;99.90;;;;;;4987693;28;20149;-88
2024/01/13 10:08:40;;;;;;;1.08;1.08;;;6.60;99.90;;;;;;4990934;28;20081;-88
2024/01/13 10:11:05;;;;;;;1.08;1.08;;;7.10;99.90;;;;;;4986176;28;20084;-88
2024/01/13 10:13:31;;;;;;;1.10;1.10;;;6.60;99.90;;;;;;4989141;28;20154;-88
2024/01/13 10:15:57;;;;;;;1.10;1.10;;;7.10;99.90;;;;;;4974828;28;20045;-88
2024/01/13 10:18:25;;;;;;;1.08;1.08;;;6.80;99.90;;;;;;4976300;28;20495;-89
2024/01/13 10:20:51;;;;;;;1.10;1.10;;;7.20;99.90;;;;;;4988896;28;20080;-88
2024/01/13 10:23:18;;;;;;;1.02;1.02;;;7.00;99.90;;;;;;4992782;28;20073;-89
2024/01/13 10:25:43;;;;;;;1.13;1.13;;;7.20;99.90;;;;;;4990351;28;20051;-88
2024/01/13 10:28:09;;;;;;;1.05;1.05;;;7.30;99.90;;;;;;4972503;28;20038;-89
2024/01/13 10:30:35;;;;;;;1.08;1.08;;;7.10;99.90;;;;;;4990545;28;20049;-89
2024/01/13 10:33:02;;;;;;;1.10;1.10;;;6.80;99.90;;;;;;4974861;28;20050;-89
2024/01/13 10:35:27;;;;;;;1.08;1.08;;;6.80;99.90;;;;;;4990762;28;20046;-93
2024/01/13 10:37:59;;;;;;;1.02;1.02;;;7.20;99.90;;;;;;4976764;28;20113;-89
2024/01/13 10:40:25;;;;;;;1.08;1.08;;;6.80;99.90;;;;;;4976243;28;20041;-89
2024/01/13 10:42:58;;;;;;;1.02;1.02;;;6.90;99.90;;;;;;4969186;28;20483;-90
2024/01/13 10:45:31;;;;;;;1.10;1.10;;;7.20;99.90;;;;;;4988894;28;20038;-89
2024/01/13 10:48:11;;;;;;;1.10;1.10;;;7.10;99.90;;;;;;4984853;28;20073;-91
2024/01/13 10:50:38;;;;;;;1.10;1.10;;;7.20;99.90;;;;;;4989974;28;20053;-90
2024/01/13 10:53:26;;;;;;;1.08;1.08;;;7.20;99.90;;;;;;4976471;28;20072;-90
2024/01/13 10:55:53;;;;;;;1.10;1.10;;;7.10;99.90;;;;;;4991214;28;20077;-89
2024/01/13 10:58:20;;;;;;;1.10;1.10;;;7.20;99.90;;;;;;4988720;28;20180;-90
2024/01/13 11:00:46;;;;;;;1.08;1.08;;;7.20;99.90;;;;;;4973339;28;20073;-89
2024/01/13 11:03:15;;;;;;;1.20;1.20;;;7.10;99.90;;;;;;4991800;28;20127;-91
2024/01/13 11:05:41;;;;;;;1.05;1.05;;;7.30;99.90;;;;;;4992974;28;20057;-88
2024/01/13 11:08:07;;;;;;;1.05;1.05;;;7.10;99.90;;;;;;4976076;28;20054;-89
2024/01/13 11:10:41;;;;;;;1.05;1.05;;;7.10;99.90;;;;;;4979676;28;20044;-93
2024/01/13 11:13:11;;;;;;;;;;;7.30;99.90;;;;;;4989769;28;20041;-89
2024/01/13 11:15:43;;;;;;;1.05;1.05;;;7.20;99.90;;;;;;4977739;28;19921;-90
2024/01/13 11:18:19;;;;;;;1.10;1.10;;;7.00;99.90;;;;;;4977663;28;20499;-91
2024/01/13 11:21:06;;;;;;;1.05;1.05;;;7.10;99.90;;;;;;4977697;28;20045;-91
2024/01/13 11:23:53;;;;;;;1.05;1.05;;;7.30;99.90;;;;;;4994939;28;20085;-91
2024/01/13 11:26:22;;;;;;;1.00;1.00;;;7.30;99.90;;;;;;4983950;28;20119;-91
2024/01/13 11:28:56;;;;;;;1.00;1.00;;;7.00;99.90;;;;;;4982386;28;20041;-92
2024/01/13 11:31:39;;;;;;;1.00;1.00;;;7.10;99.90;;;;;;4996700;28;20057;-91
2024/01/13 11:34:13;;;;;;;1.20;1.20;;;7.30;99.90;;;;;;4997372;28;20446;-90
2024/01/13 11:36:50;;;;;;;1.00;1.00;;;7.20;99.90;;;;;;4996082;28;20074;-90
2024/01/13 11:39:17;;;;;;;1.10;1.10;;;7.40;99.90;;;;;;4978628;28;20042;-90
2024/01/13 11:41:56;;;;;;;1.00;1.00;;;7.30;99.90;;;;;;4982473;28;20053;-92
2024/01/13 11:44:30;;;;;;;1.10;1.10;;;7.40;99.90;;;;;;4980975;28;20042;-90
2024/01/13 11:47:05;;;;;;;1.02;1.02;;;7.30;99.90;;;;;;4981005;28;20045;-91
2024/01/13 11:49:37;;;;;;;1.00;1.00;;;7.30;99.90;;;;;;4996859;28;20104;-92
2024/01/13 11:52:31;;;;;;;1.00;1.00;;;7.50;99.90;;;;;;4982887;28;20204;-90
2024/01/13 11:54:58;;;;;;;1.05;1.05;;;7.40;99.90;;;;;;4996673;28;20104;-91
2024/01/13 11:57:24;;;;;;;1.00;1.00;;;7.30;99.90;;;;;;4983364;28;20048;-93
2024/01/13 11:59:50;;;;;;;1.10;1.10;;;7.30;99.90;;;;;;4980521;28;20045;-91
2024/01/13 12:02:20;;;;;;;1.00;1.00;;;7.40;99.90;;;;;;4981538;28;20076;-94
2024/01/13 12:04:49;;;;;;;1.00;1.00;;;7.40;99.90;;;;;;4996381;28;20066;-90
2024/01/13 12:07:15;;;;;;;1.10;1.10;;;7.40;99.90;;;;;;4983001;28;20081;-90
2024/01/13 12:09:44;;;;;;;1.10;1.10;;;7.40;99.90;;;;;;4984247;28;20499;-94
2024/01/13 12:12:11;;;;;;;1.00;1.00;;;7.40;99.90;;;;;;4982342;28;20042;-93
2024/01/13 12:14:37;;;;;;;1.08;1.08;;;7.50;99.90;;;;;;4997083;28;20046;-93
2024/01/13 12:17:04;;;;;;;1.02;1.02;;;7.30;99.90;;;;;;4980032;28;20111;-92
2024/01/13 12:19:36;;;;;;;1.08;1.08;;;7.30;99.90;;;;;;4981232;28;20045;-92
2024/01/13 12:22:07;;;;;;;1.10;1.10;;;7.30;99.90;;;;;;4983464;28;20050;-94
2024/01/13 12:24:36;;;;;;;1.08;1.08;;;7.40;99.90;;;;;;4979138;28;20045;-91
2024/01/13 12:27:02;;;;;;;1.13;1.13;;;7.30;99.90;;;;;;4982176;28;20042;-93
2024/01/13 12:29:31;;;;;;;1.10;1.10;;;7.40;99.90;;;;;;4979119;28;20107;-93
2024/01/13 12:32:04;;;;;;;1.10;1.10;;;7.60;99.90;;;;;;5000782;28;20479;-95
2024/01/13 12:34:39;;;;;;;1.08;1.08;;;7.60;99.90;;;;;;4994812;28;20510;-93
2024/01/13 12:37:05;;;;;;;1.05;1.05;;;7.50;99.90;;;;;;4981987;28;20046;-93
2024/01/13 12:39:31;;;;;;;1.10;1.10;;;7.40;99.90;;;;;;4979625;28;20096;-94
2024/01/13 12:41:57;;;;;;;1.10;1.10;;;7.40;99.90;;;;;;4979645;28;20042;-93
2024/01/13 12:44:26;;;;;;;1.10;1.10;;;7.50;99.90;;;;;;4979332;28;20041;-93
2024/01/13 12:47:00;;;;;;;1.05;1.05;;;7.50;99.90;;;;;;4979652;28;20143;-94
2024/01/13 12:49:26;;;;;;;1.10;1.10;;;7.60;99.90;;;;;;4978688;28;20085;-96
2024/01/13 12:51:55;;;;;;;1.20;1.20;;;7.40;99.90;;;;;;4993920;28;20061;-94
2024/01/13 12:54:38;;;;;;;1.13;1.13;;;7.60;99.90;;;;;;4981515;28;20060;-93
2024/01/13 12:57:04;;;;;;;1.10;1.10;;;7.50;99.90;;;;;;4996060;28;20503;-92